Time;durP1;ratioP1;P1;durP2;ratioP2;P2;SDS_P1;SDS_P2;PMS_P1;PMS_P2;Temp;Humidity;BMP_temperature;BMP_pressure;BME280_temperature;BME280_humidity;BME280_pressure;Samples;Min_cycle;Max_cycle;Signal;HPM_P1;HPM_P2
2024/05/06 00:02:19;;;;;;;;;;;20.30;71.20;;;;;;6584741;43;113696;-74
2024/05/06 00:07:25;;;;;;;2.17;1.00;;;20.30;71.20;;;;;;6586440;43;114216;-71
2024/05/06 00:12:33;;;;;;;2.45;1.13;;;20.30;71.20;;;;;;6589231;43;115019;-71
2024/05/06 00:17:38;;;;;;;3.10;1.00;;;20.30;71.30;;;;;;6588625;43;115446;-78
2024/05/06 00:22:43;;;;;;;2.42;1.08;;;20.30;71.30;;;;;;6587157;43;114942;-76
2024/05/06 00:27:51;;;;;;;2.13;1.00;;;20.30;71.30;;;;;;6593828;43;117858;-81
2024/05/06 00:32:56;;;;;;;2.05;0.95;;;20.30;71.30;;;;;;6594974;43;116596;-81
2024/05/06 00:38:02;;;;;;;2.00;0.95;;;20.30;71.30;;;;;;6587363;43;115564;-77
2024/05/06 00:43:10;;;;;;;1.90;0.90;;;20.30;71.30;;;;;;6586681;43;110744;-81
2024/05/06 00:48:18;;;;;;;2.85;1.10;;;20.30;71.30;;;;;;6585887;43;110319;-81
2024/05/06 00:53:23;;;;;;;2.50;0.90;;;20.30;72.00;;;;;;6586975;43;111316;-78
2024/05/06 00:58:34;;;;;;;1.85;0.90;;;20.30;71.40;;;;;;6589242;43;111335;-81
2024/05/06 01:03:40;;;;;;;2.08;0.93;;;20.40;71.40;;;;;;6586391;43;110204;-82
2024/05/06 01:08:46;;;;;;;1.52;0.85;;;20.30;71.40;;;;;;6586723;43;111322;-76
2024/05/06 01:13:54;;;;;;;1.85;0.85;;;20.30;71.50;;;;;;6586421;43;110632;-79
2024/05/06 01:18:59;;;;;;;1.15;0.80;;;20.30;71.40;;;;;;6593244;43;112137;-78
2024/05/06 01:24:09;;;;;;;2.88;1.00;;;20.30;71.40;;;;;;6586401;43;110584;-75
2024/05/06 01:29:14;;;;;;;2.05;0.82;;;20.30;71.50;;;;;;6594306;43;112683;-82
2024/05/06 01:34:20;;;;;;;2.50;0.80;;;20.30;71.50;;;;;;6585308;43;110555;-83
2024/05/06 01:39:28;;;;;;;2.65;0.82;;;20.30;71.50;;;;;;6586791;43;110205;-82
2024/05/06 01:44:33;;;;;;;;;;;20.30;71.50;;;;;;6481058;44;114319;-78
2024/05/06 01:49:38;;;;;;;2.45;1.10;;;20.30;71.50;;;;;;6481739;43;113435;-79
2024/05/06 01:54:46;;;;;;;2.25;0.82;;;20.30;71.50;;;;;;6480311;44;114304;-75
2024/05/06 01:59:51;;;;;;;;;;;20.30;71.50;;;;;;6481388;44;114619;-80
2024/05/06 02:04:56;;;;;;;2.00;0.90;;;20.30;71.50;;;;;;6482177;44;114306;-83
2024/05/06 02:10:04;;;;;;;1.70;0.82;;;20.30;71.60;;;;;;6480313;44;115145;-78
2024/05/06 02:15:10;;;;;;;1.77;0.90;;;20.30;71.60;;;;;;6499042;43;114656;-79
2024/05/06 02:20:16;;;;;;;2.80;0.90;;;20.40;71.50;;;;;;6487003;44;117337;-77
2024/05/06 02:25:23;;;;;;;1.85;0.90;;;20.40;71.50;;;;;;6480973;43;115370;-77
2024/05/06 02:30:29;;;;;;;2.15;0.90;;;20.40;71.60;;;;;;6479942;44;110374;-82
2024/05/06 02:35:34;;;;;;;4.05;0.98;;;20.30;71.50;;;;;;6482249;44;110299;-79
2024/05/06 02:40:42;;;;;;;1.23;0.70;;;20.30;71.50;;;;;;6487154;44;112265;-72
2024/05/06 02:45:48;;;;;;;2.35;0.90;;;20.30;71.40;;;;;;6481012;43;110954;-80
2024/05/06 02:50:53;;;;;;;1.65;0.88;;;20.30;71.40;;;;;;6480254;44;110270;-82
2024/05/06 02:56:01;;;;;;;1.90;0.90;;;20.30;71.40;;;;;;6482028;44;111256;-82
2024/05/06 03:01:06;;;;;;;;;;;20.30;71.50;;;;;;6482731;44;110374;-81
2024/05/06 03:06:11;;;;;;;1.83;0.90;;;20.30;71.40;;;;;;6488712;44;112131;-81
2024/05/06 03:11:19;;;;;;;2.25;0.95;;;20.30;71.50;;;;;;6482316;44;110915;-79
2024/05/06 03:16:24;;;;;;;;;;;20.30;71.40;;;;;;6481549;44;110325;-82
2024/05/06 03:21:30;;;;;;;3.50;0.90;;;20.30;71.50;;;;;;6482887;43;110500;-78
2024/05/06 03:26:43;;;;;;;1.77;0.80;;;20.30;72.20;;;;;;6481847;44;110456;-80
2024/05/06 03:31:48;;;;;;;1.92;0.80;;;20.30;71.50;;;;;;6484994;44;110659;-81
2024/05/06 03:36:53;;;;;;;2.00;0.90;;;20.30;71.40;;;;;;6480822;43;113671;-82
2024/05/06 03:42:01;;;;;;;2.50;0.90;;;20.30;71.50;;;;;;6482266;44;114976;-83
2024/05/06 03:47:10;;;;;;;2.33;0.75;;;20.30;71.50;;;;;;6483342;44;114361;-78
2024/05/06 03:52:16;;;;;;;3.40;1.00;;;20.30;71.50;;;;;;6491758;44;116438;-74
2024/05/06 03:57:23;;;;;;;1.40;0.82;;;20.30;71.40;;;;;;6480736;44;115014;-80
2024/05/06 04:02:29;;;;;;;1.42;0.90;;;20.30;71.40;;;;;;6480508;43;114286;-75
2024/05/06 04:07:34;;;;;;;3.78;1.08;;;20.30;71.30;;;;;;6482312;44;116207;-74
2024/05/06 04:12:42;;;;;;;1.70;0.80;;;20.30;71.30;;;;;;6488404;44;117750;-74
2024/05/06 04:17:47;;;;;;;2.15;0.90;;;20.30;71.30;;;;;;6488528;43;112527;-74
2024/05/06 04:22:53;;;;;;;1.50;0.90;;;20.30;71.30;;;;;;6482020;43;110666;-72
2024/05/06 04:28:01;;;;;;;1.98;0.80;;;20.30;71.40;;;;;;6527887;43;111028;-75
2024/05/06 04:33:07;;;;;;;1.70;0.90;;;20.30;71.20;;;;;;6543501;43;111845;-74
2024/05/06 04:38:12;;;;;;;2.05;0.85;;;20.30;71.30;;;;;;6533990;43;110420;-75
2024/05/06 04:43:20;;;;;;;1.77;0.90;;;20.30;71.30;;;;;;6541669;43;112587;-73
2024/05/06 04:48:26;;;;;;;2.33;0.90;;;20.30;71.90;;;;;;6531066;43;111487;-74
2024/05/06 04:53:31;;;;;;;1.80;0.90;;;20.30;71.20;;;;;;6530969;43;110768;-74
2024/05/06 04:58:39;;;;;;;2.95;0.80;;;20.30;71.30;;;;;;6535246;43;110556;-75
2024/05/06 05:03:45;;;;;;;3.22;1.05;;;20.30;71.30;;;;;;6539400;43;112570;-82
2024/05/06 05:08:50;;;;;;;2.05;0.90;;;20.30;71.20;;;;;;6538066;43;110518;-82
2024/05/06 05:13:58;;;;;;;2.45;1.00;;;20.30;71.10;;;;;;6536304;43;112246;-81
2024/05/06 05:19:03;;;;;;;2.83;0.90;;;20.30;71.20;;;;;;6537352;43;110764;-82
2024/05/06 05:24:09;;;;;;;2.38;0.90;;;20.30;71.20;;;;;;6530765;43;114851;-81
2024/05/06 05:29:17;;;;;;;2.85;0.95;;;20.30;71.10;;;;;;6530754;43;112973;-83
2024/05/06 05:34:22;;;;;;;;;;;20.30;71.20;;;;;;6531122;43;113159;-78
2024/05/06 05:39:27;;;;;;;2.90;0.90;;;20.30;71.20;;;;;;6532779;43;113098;-84
2024/05/06 05:44:35;;;;;;;2.85;1.00;;;20.30;71.20;;;;;;6530078;43;115239;-80
2024/05/06 05:49:40;;;;;;;;;;;20.30;71.30;;;;;;6530411;43;115498;-82
2024/05/06 05:54:45;;;;;;;2.00;0.82;;;20.30;71.30;;;;;;6529326;43;115496;-82
2024/05/06 05:59:53;;;;;;;1.67;0.85;;;20.30;71.40;;;;;;6547001;43;118176;-83
2024/05/06 06:04:59;;;;;;;1.75;0.93;;;20.30;71.30;;;;;;6532415;43;114411;-75
2024/05/06 06:10:04;;;;;;;3.97;1.00;;;20.30;71.40;;;;;;6532648;43;110206;-78
2024/05/06 06:15:12;;;;;;;1.83;0.88;;;20.30;71.40;;;;;;6530304;43;111244;-81
2024/05/06 06:20:18;;;;;;;2.63;0.98;;;20.30;71.60;;;;;;6529389;43;111174;-76
2024/05/06 06:25:23;;;;;;;1.27;0.90;;;20.30;71.60;;;;;;6530894;43;110239;-78
2024/05/06 06:30:31;;;;;;;2.15;0.95;;;20.30;71.60;;;;;;6531610;43;110228;-72
2024/05/06 06:35:36;;;;;;;1.85;0.90;;;20.30;71.60;;;;;;6532495;43;110694;-80
2024/05/06 06:40:41;;;;;;;4.07;1.10;;;20.30;71.60;;;;;;6539921;43;113117;-74
2024/05/06 06:45:49;;;;;;;2.60;1.13;;;20.30;71.80;;;;;;6534041;43;111303;-73
2024/05/06 06:50:55;;;;;;;4.00;1.10;;;20.30;71.80;;;;;;6532302;43;111337;-71
2024/05/06 06:56:00;;;;;;;2.53;0.90;;;20.30;71.80;;;;;;6531027;43;110622;-76
2024/05/06 07:01:08;;;;;;;1.95;1.10;;;20.30;72.60;;;;;;6531178;43;111492;-72
2024/05/06 07:06:14;;;;;;;1.75;1.00;;;20.30;71.90;;;;;;6533262;43;111422;-77
2024/05/06 07:11:19;;;;;;;3.58;1.00;;;20.30;72.00;;;;;;6531839;43;113403;-77
2024/05/06 07:16:27;;;;;;;1.98;1.00;;;20.30;72.00;;;;;;6537290;43;115221;-76
2024/05/06 07:21:34;;;;;;;2.85;0.90;;;20.30;72.10;;;;;;6532918;43;114793;-73
2024/05/06 07:26:40;;;;;;;2.45;0.85;;;20.30;72.10;;;;;;6531404;43;114566;-78
2024/05/06 07:32:02;;;;;;;2.22;0.95;;;20.40;72.30;;;;;;6538310;43;116222;-77
2024/05/06 07:37:07;;;;;;;2.03;1.00;;;20.40;72.30;;;;;;6532255;43;115706;-72
2024/05/06 07:42:13;;;;;;;2.20;1.00;;;20.40;72.40;;;;;;6531814;43;115106;-72
2024/05/06 07:47:20;;;;;;;2.75;0.98;;;20.40;72.30;;;;;;6530007;43;114125;-73
2024/05/06 07:52:26;;;;;;;2.00;0.97;;;20.40;72.10;;;;;;6532130;43;115261;-75
2024/05/06 07:57:32;;;;;;;1.63;0.85;;;20.40;72.00;;;;;;6538144;43;113004;-78
2024/05/06 08:02:41;;;;;;;1.63;0.85;;;20.40;71.70;;;;;;6535342;43;110220;-78
2024/05/06 08:07:46;;;;;;;2.83;1.00;;;20.40;71.60;;;;;;6536503;43;111779;-82
2024/05/06 08:12:52;;;;;;;2.78;0.95;;;20.40;71.70;;;;;;6541491;43;111557;-78
2024/05/06 08:18:00;;;;;;;2.13;0.80;;;20.40;71.70;;;;;;6530534;43;111456;-79
2024/05/06 08:23:07;;;;;;;2.03;0.90;;;20.50;71.70;;;;;;6529679;43;110859;-80
2024/05/06 08:28:26;;;;;;;2.13;0.80;;;20.40;71.40;;;;;;6529821;43;111506;-80
2024/05/06 08:33:34;;;;;;;2.40;1.05;;;20.50;71.20;;;;;;6531940;43;110293;-81
2024/05/06 08:38:39;;;;;;;2.10;0.90;;;20.50;71.10;;;;;;6531582;43;110257;-77
2024/05/06 08:43:46;;;;;;;1.88;0.73;;;20.50;71.10;;;;;;6584622;43;111160;-80
2024/05/06 08:48:57;;;;;;;2.50;0.90;;;20.50;71.10;;;;;;6562260;43;111731;-79
2024/05/06 08:54:03;;;;;;;1.98;0.90;;;20.50;71.30;;;;;;6529668;43;110662;-78
2024/05/06 08:59:10;;;;;;;2.75;0.90;;;20.50;71.40;;;;;;6531847;43;110246;-77
2024/05/06 09:04:19;;;;;;;1.45;0.80;;;20.50;71.40;;;;;;6529796;43;114750;-81
2024/05/06 09:09:25;;;;;;;2.10;1.00;;;20.60;71.40;;;;;;6530016;43;115704;-82
2024/05/06 09:14:30;;;;;;;2.38;1.00;;;20.60;71.20;;;;;;6529029;43;114783;-81
2024/05/06 09:19:43;;;;;;;1.88;0.90;;;20.60;71.10;;;;;;6536872;43;115696;-79
2024/05/06 09:24:48;;;;;;;1.85;0.80;;;20.60;70.90;;;;;;6529132;43;114063;-80
2024/05/06 09:29:54;;;;;;;2.65;0.95;;;20.60;70.90;;;;;;6533513;43;115428;-81
2024/05/06 09:35:06;;;;;;;2.00;0.90;;;20.60;70.90;;;;;;6528907;43;115099;-76
2024/05/06 09:40:13;;;;;;;2.00;0.88;;;20.60;71.00;;;;;;6539782;43;116697;-74
2024/05/06 09:45:33;;;;;;;1.60;0.80;;;20.60;71.10;;;;;;6528251;43;110747;-80
2024/05/06 09:50:42;;;;;;;1.65;0.90;;;20.60;71.10;;;;;;6529080;43;110943;-81
2024/05/06 09:55:51;;;;;;;2.58;0.80;;;20.60;70.60;;;;;;6537376;43;113024;-74
2024/05/06 10:01:02;;;;;;;2.38;0.80;;;20.60;70.50;;;;;;6530552;43;111275;-76
2024/05/06 10:06:15;;;;;;;1.90;0.80;;;20.60;70.90;;;;;;6532827;43;110529;-80
2024/05/06 10:11:21;;;;;;;3.30;0.80;;;20.60;71.00;;;;;;6531608;43;111119;-78
2024/05/06 10:16:28;;;;;;;2.45;0.80;;;20.60;71.10;;;;;;6534073;43;111673;-73
2024/05/06 10:21:43;;;;;;;3.77;0.90;;;20.60;70.90;;;;;;6533310;43;112469;-70
2024/05/06 10:26:53;;;;;;;2.60;0.88;;;20.60;70.50;;;;;;6537342;43;110083;-79
2024/05/06 10:32:02;;;;;;;2.70;0.80;;;20.60;70.90;;;;;;6530900;43;111496;-75
2024/05/06 10:37:12;;;;;;;2.20;0.80;;;20.60;71.00;;;;;;6530158;43;110140;-77
2024/05/06 10:42:17;;;;;;;2.30;0.85;;;20.60;71.10;;;;;;6529126;43;110568;-70
2024/05/06 10:47:22;;;;;;;1.83;0.80;;;20.60;71.10;;;;;;6539604;43;112812;-71
2024/05/06 10:52:31;;;;;;;1.90;0.75;;;20.70;70.80;;;;;;6529568;43;114569;-76
2024/05/06 10:57:37;;;;;;;2.83;0.90;;;20.70;70.80;;;;;;6528631;43;114250;-73
2024/05/06 11:02:42;;;;;;;2.38;0.80;;;20.70;71.00;;;;;;6529320;43;114332;-69
2024/05/06 11:07:54;;;;;;;3.63;0.80;;;20.70;71.00;;;;;;6539677;43;116344;-69
2024/05/06 11:12:59;;;;;;;1.73;0.80;;;20.70;71.00;;;;;;6531784;43;116559;-70
2024/05/06 11:18:05;;;;;;;1.80;0.80;;;20.70;70.70;;;;;;6530754;43;115694;-73
2024/05/06 11:23:13;;;;;;;1.00;0.63;;;20.70;70.70;;;;;;6530166;43;115597;-69
2024/05/06 11:28:19;;;;;;;2.38;0.80;;;20.70;70.70;;;;;;6532891;43;115456;-71
2024/05/06 11:33:25;;;;;;;1.45;0.70;;;20.70;71.10;;;;;;6530414;43;112634;-70
2024/05/06 11:38:33;;;;;;;1.50;0.70;;;20.80;70.80;;;;;;6527516;43;110042;-71
2024/05/06 11:43:38;;;;;;;2.58;0.80;;;20.70;70.50;;;;;;6535255;43;112870;-69
2024/05/06 11:48:44;;;;;;;1.40;0.60;;;20.80;70.50;;;;;;6489266;43;110452;-71
2024/05/06 11:53:52;;;;;;;2.67;0.60;;;20.80;70.90;;;;;;6483323;44;111755;-71
2024/05/06 11:58:57;;;;;;;1.92;0.70;;;20.80;70.90;;;;;;6476261;44;110360;-72
2024/05/06 12:04:02;;;;;;;1.08;0.70;;;20.80;70.70;;;;;;6484555;43;112143;-69
2024/05/06 12:09:11;;;;;;;1.52;0.75;;;20.80;70.50;;;;;;6475808;44;110743;-70
2024/05/06 12:14:16;;;;;;;1.55;0.80;;;20.80;70.60;;;;;;6479542;43;110508;-73
2024/05/06 12:19:22;;;;;;;1.30;0.63;;;20.80;70.80;;;;;;6476710;43;110589;-69
2024/05/06 12:24:30;;;;;;;1.83;0.82;;;20.80;70.80;;;;;;6477491;43;111334;-70
2024/05/06 12:29:39;;;;;;;1.55;0.70;;;20.80;70.60;;;;;;6528148;43;110246;-71
2024/05/06 12:34:45;;;;;;;1.75;0.70;;;20.80;70.70;;;;;;6548419;43;112675;-74
2024/05/06 12:39:53;;;;;;;2.70;0.80;;;20.80;70.70;;;;;;6527567;43;114583;-71
2024/05/06 12:44:58;;;;;;;2.50;0.60;;;20.80;70.70;;;;;;6528444;43;113942;-69
2024/05/06 12:50:03;;;;;;;1.88;0.80;;;20.80;70.70;;;;;;6527377;43;113925;-77
2024/05/06 12:55:24;;;;;;;1.77;0.70;;;20.80;70.40;;;;;;6527657;43;114227;-73
2024/05/06 13:00:30;;;;;;;1.45;0.80;;;20.80;70.80;;;;;;6529828;43;114579;-72
2024/05/06 13:05:55;;;;;;;3.13;0.77;;;20.80;71.00;;;;;;6528396;43;115640;-70
2024/05/06 13:11:03;;;;;;;1.77;0.80;;;20.80;70.90;;;;;;6572056;43;115334;-78
2024/05/06 13:16:09;;;;;;;3.13;0.80;;;20.80;70.80;;;;;;6582004;43;113848;-77
2024/05/06 13:21:14;;;;;;;2.15;0.80;;;20.80;70.70;;;;;;6580874;43;114912;-76
2024/05/06 13:26:22;;;;;;;1.73;0.73;;;20.80;70.70;;;;;;6588465;43;112178;-72
2024/05/06 13:31:28;;;;;;;3.08;0.80;;;20.80;70.90;;;;;;6581810;43;110580;-71
2024/05/06 13:36:33;;;;;;;2.00;0.80;;;20.80;71.00;;;;;;6589458;43;113134;-70
2024/05/06 13:41:41;;;;;;;2.45;0.80;;;20.80;70.90;;;;;;6582112;43;110581;-73
2024/05/06 13:46:47;;;;;;;3.05;0.90;;;20.80;70.60;;;;;;6583318;43;110645;-73
2024/05/06 13:51:53;;;;;;;2.75;1.02;;;20.80;70.60;;;;;;6582133;43;110630;-72
2024/05/06 13:57:01;;;;;;;1.58;0.75;;;20.80;70.70;;;;;;6581465;43;111756;-75
2024/05/06 14:02:07;;;;;;;2.90;0.82;;;20.90;71.10;;;;;;6583122;43;110496;-73
2024/05/06 14:07:13;;;;;;;2.35;0.80;;;20.90;71.00;;;;;;6581512;43;110929;-72
2024/05/06 14:12:21;;;;;;;2.70;0.90;;;20.90;70.90;;;;;;6582200;43;111377;-72
2024/05/06 14:17:26;;;;;;;2.42;0.80;;;20.90;70.80;;;;;;6580336;43;111141;-72
2024/05/06 14:22:31;;;;;;;2.00;0.80;;;20.90;70.90;;;;;;6583397;43;112184;-77
2024/05/06 14:27:40;;;;;;;1.83;0.80;;;20.80;71.20;;;;;;6582149;43;110425;-77
2024/05/06 14:32:45;;;;;;;3.58;0.80;;;20.90;71.30;;;;;;6580623;43;114427;-77
2024/05/06 14:37:50;;;;;;;2.17;0.93;;;20.90;71.20;;;;;;6580093;43;115602;-75
2024/05/06 14:42:58;;;;;;;2.22;0.88;;;20.90;70.90;;;;;;6565925;43;114350;-73
2024/05/06 14:48:04;;;;;;;1.48;0.80;;;20.90;70.70;;;;;;6582903;43;114229;-71
2024/05/06 14:53:09;;;;;;;2.20;0.63;;;20.90;70.80;;;;;;6589731;43;115891;-73
2024/05/06 14:58:17;;;;;;;2.50;0.73;;;20.90;70.80;;;;;;6584670;43;115087;-72
2024/05/06 15:03:23;;;;;;;2.33;0.90;;;20.90;70.90;;;;;;6561235;43;115788;-75
2024/05/06 15:08:29;;;;;;;2.20;0.80;;;20.90;70.70;;;;;;6530570;43;115188;-77
2024/05/06 15:13:37;;;;;;;2.45;0.70;;;20.90;70.60;;;;;;6529250;43;110454;-74
2024/05/06 15:18:42;;;;;;;1.50;0.68;;;20.90;70.80;;;;;;6529579;43;111359;-77
2024/05/06 15:23:48;;;;;;;2.75;1.00;;;20.90;71.00;;;;;;6529202;43;110419;-76
2024/05/06 15:28:56;;;;;;;1.65;0.70;;;20.90;70.70;;;;;;6529197;43;110555;-78
2024/05/06 15:34:01;;;;;;;1.63;0.70;;;20.90;70.50;;;;;;6533681;43;111109;-79
2024/05/06 15:39:06;;;;;;;1.88;0.73;;;20.90;70.50;;;;;;6529335;43;111143;-78
2024/05/06 15:44:14;;;;;;;2.45;0.80;;;20.90;70.70;;;;;;6536640;43;112640;-80
2024/05/06 15:49:19;;;;;;;1.98;0.80;;;20.90;70.60;;;;;;6528746;43;110172;-77
2024/05/06 15:54:25;;;;;;;1.30;0.60;;;20.90;70.50;;;;;;6529674;43;110530;-77
2024/05/06 15:59:33;;;;;;;2.72;0.80;;;21.00;70.90;;;;;;6526943;43;111194;-76
2024/05/06 16:04:39;;;;;;;1.45;0.73;;;21.10;70.50;;;;;;6565436;43;111179;-73
2024/05/06 16:09:45;;;;;;;0.85;0.50;;;21.20;70.30;;;;;;6584698;43;110551;-74
2024/05/06 16:14:53;;;;;;;1.52;0.70;;;21.20;69.70;;;;;;6587175;43;110795;-74
2024/05/06 16:19:58;;;;;;;2.67;0.60;;;21.30;69.40;;;;;;6583459;43;114260;-71
2024/05/06 16:25:03;;;;;;;1.45;0.70;;;21.30;68.90;;;;;;6589511;43;114636;-74
2024/05/06 16:30:14;;;;;;;1.52;0.60;;;21.40;68.60;;;;;;6587907;43;114722;-79
2024/05/06 16:35:33;;;;;;;1.27;0.60;;;21.40;69.10;;;;;;6583451;43;114771;-77
2024/05/06 16:40:38;;;;;;;1.58;0.70;;;21.40;68.30;;;;;;6583903;43;115276;-72
2024/05/06 16:45:47;;;;;;;1.08;0.60;;;21.50;68.00;;;;;;6582924;43;115358;-73
2024/05/06 16:50:54;;;;;;;1.85;0.63;;;21.50;67.80;;;;;;6531180;43;114064;-73
2024/05/06 16:56:00;;;;;;;1.08;0.60;;;21.50;67.80;;;;;;6528804;43;115615;-79
2024/05/06 17:01:08;;;;;;;1.20;0.60;;;21.50;67.40;;;;;;6532136;43;115026;-77
2024/05/06 17:06:13;;;;;;;0.93;0.60;;;21.60;67.50;;;;;;6534746;43;112054;-76
2024/05/06 17:11:19;;;;;;;2.38;0.60;;;21.60;67.70;;;;;;6530352;43;110603;-74
2024/05/06 17:16:27;;;;;;;1.55;0.70;;;21.60;67.50;;;;;;6554951;43;110990;-77
2024/05/06 17:21:33;;;;;;;1.58;0.60;;;21.60;67.20;;;;;;6530445;43;110377;-74
2024/05/06 17:26:38;;;;;;;3.63;0.68;;;21.60;67.20;;;;;;6530097;43;110234;-75
2024/05/06 17:31:46;;;;;;;2.15;0.50;;;21.60;66.90;;;;;;6530887;43;111349;-80
2024/05/06 17:36:51;;;;;;;3.15;0.70;;;21.60;66.80;;;;;;6527286;43;111413;-71
2024/05/06 17:41:56;;;;;;;1.05;0.57;;;21.60;66.30;;;;;;6538033;43;113011;-80
2024/05/06 17:47:04;;;;;;;2.17;0.68;;;21.60;66.40;;;;;;6526263;43;110638;-75
2024/05/06 17:52:10;;;;;;;3.20;0.65;;;21.50;66.40;;;;;;6526565;43;110285;-78
2024/05/06 17:57:15;;;;;;;3.38;0.80;;;21.50;66.20;;;;;;6527557;43;111173;-79
2024/05/06 18:02:23;;;;;;;2.28;0.65;;;21.50;66.30;;;;;;6536939;43;112858;-78
2024/05/06 18:07:28;;;;;;;1.35;0.50;;;21.50;66.60;;;;;;6535768;43;116282;-76
2024/05/06 18:12:34;;;;;;;3.53;0.70;;;21.40;66.80;;;;;;6526742;43;113359;-75
2024/05/06 18:17:42;;;;;;;2.45;0.55;;;21.40;66.90;;;;;;6528765;43;115492;-78
2024/05/06 18:22:47;;;;;;;1.95;0.63;;;21.40;66.60;;;;;;6528702;43;115740;-75
2024/05/06 18:27:53;;;;;;;1.60;0.65;;;21.40;67.20;;;;;;6532702;43;114636;-77
2024/05/06 18:33:00;;;;;;;2.30;0.70;;;21.40;68.20;;;;;;6528175;43;116281;-79
2024/05/06 18:38:07;;;;;;;2.97;0.70;;;21.40;66.50;;;;;;6531111;43;114679;-75
2024/05/06 18:43:19;;;;;;;2.25;0.70;;;21.40;67.70;;;;;;6530662;43;114423;-76
2024/05/06 18:48:27;;;;;;;2.90;0.75;;;21.40;67.70;;;;;;6530993;43;115475;-76
2024/05/06 18:53:50;;;;;;;0.88;0.50;;;21.30;66.90;;;;;;6486401;44;112625;-77
2024/05/06 18:58:56;;;;;;;3.85;0.77;;;21.30;67.00;;;;;;6478788;43;110783;-79
2024/05/06 19:04:04;;;;;;;5.50;1.02;;;21.20;67.10;;;;;;6478072;44;110515;-80
2024/05/06 19:09:09;;;;;;;2.03;0.65;;;21.20;66.70;;;;;;6520129;43;112432;-76
2024/05/06 19:14:15;;;;;;;2.88;0.65;;;21.20;66.70;;;;;;6527949;43;110927;-74
2024/05/06 19:19:22;;;;;;;3.20;0.80;;;21.20;66.90;;;;;;6526170;43;110794;-76
2024/05/06 19:24:29;;;;;;;3.60;0.82;;;21.20;67.00;;;;;;6527172;43;110904;-70
2024/05/06 19:29:35;;;;;;;3.42;0.88;;;21.20;67.20;;;;;;6528549;43;111149;-71
2024/05/06 19:34:42;;;;;;;2.97;0.80;;;21.20;67.30;;;;;;6527268;43;110281;-74
2024/05/06 19:39:48;;;;;;;2.78;0.80;;;21.10;67.70;;;;;;6527633;43;110427;-71
2024/05/06 19:44:53;;;;;;;3.80;0.80;;;21.10;67.80;;;;;;6528149;43;110136;-70
2024/05/06 19:50:01;;;;;;;3.70;0.90;;;21.10;67.70;;;;;;6536817;43;112941;-72
2024/05/06 19:55:13;;;;;;;4.88;0.90;;;21.10;67.40;;;;;;6531010;43;110839;-78
2024/05/06 20:00:19;;;;;;;1.65;0.90;;;21.10;68.00;;;;;;6529457;43;113857;-76
2024/05/06 20:05:43;;;;;;;3.80;0.90;;;21.10;68.00;;;;;;6536258;43;113713;-79
2024/05/06 20:10:48;;;;;;;3.95;1.17;;;21.10;68.00;;;;;;6528302;43;114284;-78
2024/05/06 20:15:53;;;;;;;4.57;1.00;;;21.10;68.30;;;;;;6530299;43;113573;-79
2024/05/06 20:21:01;;;;;;;4.90;1.10;;;21.00;68.30;;;;;;6529823;43;115710;-79
2024/05/06 20:26:07;;;;;;;4.28;1.27;;;21.00;68.30;;;;;;6527783;43;113713;-80
2024/05/06 20:31:12;;;;;;;3.38;1.13;;;21.00;68.50;;;;;;6527654;43;114596;-77
2024/05/06 20:36:20;;;;;;;3.95;1.13;;;21.00;68.60;;;;;;6536854;43;118344;-75
2024/05/06 20:41:25;;;;;;;4.75;1.35;;;21.00;68.80;;;;;;6529285;43;111209;-77
2024/05/06 20:46:34;;;;;;;3.45;1.33;;;21.00;68.90;;;;;;6528514;43;110202;-73
2024/05/06 20:51:43;;;;;;;5.32;1.50;;;21.00;68.90;;;;;;6527136;43;110413;-72
2024/05/06 20:56:48;;;;;;;3.63;1.42;;;21.00;69.00;;;;;;6526931;43;110596;-79
2024/05/06 21:01:53;;;;;;;4.57;1.58;;;21.00;69.10;;;;;;6510986;43;110496;-75
2024/05/06 21:07:01;;;;;;;3.47;1.38;;;21.00;69.30;;;;;;6475975;44;111026;-74
2024/05/06 21:12:07;;;;;;;4.10;1.38;;;21.00;69.40;;;;;;6480896;44;110481;-74
2024/05/06 21:17:13;;;;;;;6.00;1.40;;;21.00;70.10;;;;;;6478755;44;110681;-72
2024/05/06 21:22:20;;;;;;;3.75;1.42;;;21.00;69.50;;;;;;6479452;43;111021;-76
2024/05/06 21:27:26;;;;;;;3.85;1.20;;;21.00;70.20;;;;;;6478470;43;110513;-72
2024/05/06 21:32:31;;;;;;;4.40;1.70;;;21.00;69.50;;;;;;6478568;43;110972;-72
2024/05/06 21:37:40;;;;;;;5.72;1.33;;;21.00;69.50;;;;;;6479160;43;110838;-76
2024/05/06 21:42:51;;;;;;;3.92;1.50;;;21.00;69.50;;;;;;6481358;44;110358;-74
2024/05/06 21:47:56;;;;;;;3.22;1.40;;;21.00;69.40;;;;;;6479862;44;115584;-72
2024/05/06 21:53:05;;;;;;;4.13;1.38;;;21.00;69.40;;;;;;6478322;43;113416;-76
2024/05/06 21:58:11;;;;;;;2.97;1.20;;;20.90;69.30;;;;;;6516461;43;116307;-75
2024/05/06 22:03:17;;;;;;;3.13;1.17;;;21.00;69.10;;;;;;6532374;43;115622;-76
2024/05/06 22:08:26;;;;;;;3.25;1.23;;;20.90;68.90;;;;;;6529522;43;115459;-76
2024/05/06 22:13:31;;;;;;;3.53;1.23;;;20.90;69.00;;;;;;6528975;43;115446;-76
2024/05/06 22:18:36;;;;;;;3.58;1.20;;;20.90;68.80;;;;;;6529198;43;113473;-74
2024/05/06 22:23:44;;;;;;;3.83;1.20;;;20.90;68.90;;;;;;6530353;43;115192;-73
2024/05/06 22:28:49;;;;;;;4.13;1.40;;;20.90;68.90;;;;;;6537897;43;117881;-72
2024/05/06 22:34:04;;;;;;;3.13;1.17;;;20.90;68.70;;;;;;6527716;43;110245;-72
2024/05/06 22:39:12;;;;;;;3.47;1.20;;;20.90;68.70;;;;;;6531457;43;111379;-72
2024/05/06 22:44:17;;;;;;;2.90;1.10;;;20.80;68.60;;;;;;6528591;43;111218;-75
2024/05/06 22:49:22;;;;;;;2.88;1.20;;;20.90;68.60;;;;;;6530197;43;110610;-78
2024/05/06 22:54:31;;;;;;;3.00;1.10;;;20.90;68.40;;;;;;6528506;43;110813;-74
2024/05/06 22:59:36;;;;;;;3.47;1.08;;;20.90;68.20;;;;;;6528087;43;110683;-77
2024/05/06 23:04:41;;;;;;;4.03;1.35;;;20.90;68.40;;;;;;6537743;43;113842;-77
2024/05/06 23:09:49;;;;;;;2.80;1.10;;;20.80;68.30;;;;;;6531056;43;110280;-79
2024/05/06 23:14:55;;;;;;;2.00;1.02;;;20.80;68.30;;;;;;6530935;43;110838;-79
2024/05/06 23:20:00;;;;;;;3.17;0.95;;;20.80;68.20;;;;;;6532203;43;110312;-79
2024/05/06 23:25:09;;;;;;;4.15;1.20;;;20.80;69.00;;;;;;6530908;43;110591;-72
2024/05/06 23:30:32;;;;;;;2.28;1.05;;;20.80;68.30;;;;;;6534509;43;110717;-81
2024/05/06 23:35:40;;;;;;;2.53;1.13;;;20.80;68.30;;;;;;6535456;43;113415;-76
2024/05/06 23:40:48;;;;;;;3.33;1.23;;;20.80;68.30;;;;;;6543336;43;116492;-76
2024/05/06 23:45:53;;;;;;;3.20;1.20;;;20.80;68.30;;;;;;6538725;43;116684;-79
2024/05/06 23:50:59;;;;;;;4.18;1.10;;;20.80;68.40;;;;;;6531066;43;114889;-73
2024/05/06 23:56:09;;;;;;;4.78;1.20;;;20.80;68.40;;;;;;6533048;43;114752;-76
